Chanute Martin Johnson Airport
KCNU : now visible

Airfield :











YOU CAN JOIN US ON...

 
LOGIN :

Register | Disclaimer

   EN    FR    IT 

 









Legend :    VFR   Marginal VFR   IFR   Intensive IFR   Very Intensive IFR
Visi :
Ceiling :
>= 8 km
>= 3000ft
5 to 8 km
1000 to 3000 ft
1500m to 5 km
500 to 1000 ft
800 to 1500m
200 to 500 ft
< 800m
< 200 ft
Symbols :   Thunderstorms  Fog  Heavy snow  Heavy precipitations  Wind > 20 kt






- Airport Elevation : 1002 ft


KCNU - Chanute Martin Johnson

CURRENT METAR :
  • 271552Z AUTO 30006KT 10SM CLR 25/16 A2999 RMK AO2 SLP145 T02500156

EXPIRED METARs :
  • 271452Z AUTO 31008KT 10SM CLR 23/15 A2997 RMK AO2 SLP140 T02330150 51030 $
  • 271352Z AUTO 33006KT 10SM CLR 21/14 A2995 RMK AO2 SLP133 T02110144 $
  • 271252Z AUTO 30005KT 10SM CLR 19/14 A2992 RMK AO2 SLP120 T01940144 $
  • 271152Z AUTO 32005KT 10SM CLR 17/14 A2988 RMK AO2 SLP109 T01720139 10200 20156 53021 $

TAF KCNU
Valid from the 27 at 12:00 until the 28 at 12:00 UTC


271120Z 2712/2812 32006KT P6SM SKC
FM280100 36005KT P6SM SKC
KZKC FIR / North America



MET'MAP, your aeronautical weather chart ! - Copyright ORBIFLY December 2007 - Disclaimer

ORBIFLY MET'MAP TEAM :

Programming & Development : Alexandra Zaïnal
Original concept : Baudouin d'Aumeries
Technical & hardware support : Manuel Goepfert
Assistance : Marc-Olivier Méhu




SOURCES & CREDITS :

   NOAA       Earth
Advisory